Aviation Digital Data Service (ADDS)

Output produced by METARs form (0743 UTC 20 January 2017)
found at http://aviationweather.gov/adds/metars/
 
KPVD 200533Z 2006/2106 03008KT P6SM OVC025 
     FM210300 00000KT P6SM VCSH BKN015